Time;durP1;ratioP1;P1;durP2;ratioP2;P2;SDS_P1;SDS_P2;PMS_P1;PMS_P2;Temp;Humidity;BMP_temperature;BMP_pressure;BME280_temperature;BME280_humidity;BME280_pressure;Samples;Min_cycle;Max_cycle;Signal;HPM_P1;HPM_P2
2021/11/12 00:12:33;;;;;;;35.15;18.98;;;;;;;-142.75;100.00;77964.22;5014707;28;20064;-69
2021/11/12 00:15:00;;;;;;;36.08;18.75;;;;;;;-142.75;100.00;77964.22;5000638;28;20437;-71
2021/11/12 00:17:29;;;;;;;36.90;18.67;;;;;;;-142.75;100.00;77964.22;5016868;28;20026;-70
2021/11/12 00:19:56;;;;;;;33.72;18.55;;;;;;;-142.75;100.00;77958.31;5018527;28;20141;-71
2021/11/12 00:22:23;;;;;;;38.15;19.38;;;;;;;-142.75;100.00;77960.28;5018709;28;20026;-70
2021/11/12 00:24:54;;;;;;;38.20;19.65;;;;;;;-142.75;100.00;77952.41;5016316;28;20075;-74
2021/11/12 00:27:20;;;;;;;32.17;18.38;;;;;;;-142.75;100.00;77936.66;5004894;28;20121;-71
2021/11/12 00:29:59;;;;;;;35.40;18.80;;;;;;;-142.75;100.00;77948.47;5021172;28;20029;-70
2021/11/12 00:40:06;;;;;;;37.28;18.23;;;;;;;-142.75;100.00;77915.00;5020028;28;20021;-71
2021/11/12 00:43:35;;;;;;;33.88;16.88;;;;;;;-142.75;100.00;77920.91;5015068;28;20026;-69
2021/11/12 00:45:32;;;;;;;35.85;18.38;;;;;;;-142.75;100.00;77907.09;4997701;28;20473;-70
2021/11/12 00:55:34;;;;;;;36.88;18.02;;;;;;;-142.75;100.00;77909.06;5018961;28;20542;-69
2021/11/12 00:58:00;;;;;;;35.55;17.30;;;;;;;-142.75;100.00;77911.06;4994670;28;20033;-69
2021/11/12 01:00:26;;;;;;;37.80;18.00;;;;;;;-142.75;100.00;77907.09;5019382;28;20064;-69
2021/11/12 01:02:52;;;;;;;38.08;17.83;;;;;;;-142.75;100.00;77897.25;5019985;28;20025;-69
2021/11/12 01:05:17;;;;;;;33.80;17.23;;;;;;;-142.75;100.00;77911.06;5000310;28;20030;-69
2021/11/12 01:07:43;;;;;;;40.58;18.25;;;;;;;-142.75;100.00;77915.00;5017760;28;20025;-70
2021/11/12 01:10:11;;;;;;;34.03;18.15;;;;;;;-142.75;100.00;77924.84;5000832;28;20526;-71
2021/11/12 01:12:38;;;;;;;36.35;18.33;;;;;;;-142.75;100.00;77936.66;5020046;28;20048;-69
2021/11/12 01:15:06;;;;;;;40.58;18.98;;;;;;;-142.75;100.00;77950.44;5014228;28;20037;-71
2021/11/12 01:17:32;;;;;;;37.17;17.77;;;;;;;-142.75;100.00;77936.66;5013810;28;20029;-70
2021/11/12 01:19:57;;;;;;;44.53;19.47;;;;;;;-142.75;100.00;77928.78;5000788;28;20487;-71
2021/11/12 01:22:23;;;;;;;40.83;19.00;;;;;;;-142.75;100.00;77936.66;5002026;28;20283;-70
2021/11/12 01:24:49;;;;;;;39.42;18.75;;;;;;;-142.75;100.00;77928.78;5005468;28;20724;-71
2021/11/12 01:27:14;;;;;;;;;;;;;;;-142.75;100.00;77936.66;5020564;28;20025;-70
2021/11/12 01:29:39;;;;;;;39.28;18.88;;;;;;;-142.75;100.00;77944.53;5000562;28;19913;-70
2021/11/12 01:32:25;;;;;;;38.35;18.17;;;;;;;-142.75;100.00;77948.47;5011893;28;20438;-70
2021/11/12 01:34:54;;;;;;;38.05;20.23;;;;;;;-142.75;100.00;77940.59;5016549;28;20044;-70
2021/11/12 01:37:21;;;;;;;39.10;19.42;;;;;;;-142.75;100.00;77964.22;5001243;28;20049;-74
2021/11/12 01:39:57;;;;;;;32.47;18.92;;;;;;;-142.75;100.00;77960.28;4999308;28;20025;-70
2021/11/12 01:42:26;;;;;;;34.58;18.13;;;;;;;-142.75;100.00;77938.63;5016891;28;20025;-70
2021/11/12 01:44:57;;;;;;;35.67;19.73;;;;;;;-142.75;100.00;77952.41;5002234;28;20029;-71
2021/11/12 01:49:57;;;;;;;35.97;18.80;;;;;;;-142.75;100.00;77952.41;5021301;28;20038;-71
2021/11/12 01:52:44;;;;;;;34.88;19.35;;;;;;;-142.75;100.00;77948.47;5014292;28;20068;-71
2021/11/12 01:55:13;;;;;;;33.88;19.40;;;;;;;-142.75;100.00;77968.16;5000999;28;20031;-70
2021/11/12 01:57:50;;;;;;;38.07;20.03;;;;;;;-142.75;100.00;77968.16;5017284;28;20041;-71
2021/11/12 02:00:19;;;;;;;38.25;19.80;;;;;;;-142.75;100.00;77964.22;5017906;28;20400;-71
2021/11/12 02:02:45;;;;;;;38.95;20.02;;;;;;;-142.75;100.00;77976.03;5021716;28;20029;-75
2021/11/12 02:05:11;;;;;;;37.83;20.35;;;;;;;-142.75;100.00;77974.06;4999445;28;20452;-73
2021/11/12 02:07:37;;;;;;;38.25;20.02;;;;;;;-142.75;100.00;77964.22;5007815;28;20116;-70
2021/11/12 02:10:11;;;;;;;39.75;19.85;;;;;;;-142.75;100.00;77978.00;5017154;28;20105;-71
2021/11/12 02:15:15;;;;;;;35.58;19.70;;;;;;;-142.75;100.00;77974.06;5019998;28;20451;-71
2021/11/12 02:17:44;;;;;;;;;;;;;;;-142.75;100.00;77968.16;5016510;28;20034;-71
2021/11/12 02:20:18;;;;;;;44.47;20.30;;;;;;;-142.75;100.00;77966.19;5019906;28;19919;-71
2021/11/12 02:22:46;;;;;;;39.58;19.75;;;;;;;-142.75;100.00;77968.16;5021532;28;20088;-71
2021/11/12 02:25:27;;;;;;;39.22;20.60;;;;;;;-142.75;100.00;77958.31;5019120;28;20463;-74
2021/11/12 02:27:58;;;;;;;42.55;20.98;;;;;;;-142.75;100.00;77952.41;5018432;28;20037;-71
2021/11/12 02:30:30;;;;;;;36.67;20.27;;;;;;;-142.75;100.00;77936.66;5019622;28;20065;-71
2021/11/12 02:33:08;;;;;;;41.25;21.13;;;;;;;-142.75;100.00;77952.41;5021731;28;20503;-73
2021/11/12 02:35:37;;;;;;;42.38;20.05;;;;;;;-142.75;100.00;77948.47;5017852;28;20072;-70
2021/11/12 02:38:03;;;;;;;40.35;19.92;;;;;;;-142.75;100.00;77948.47;5021061;28;20064;-73
2021/11/12 02:40:30;;;;;;;39.08;19.83;;;;;;;-142.75;100.00;77964.22;5016436;28;20017;-71
2021/11/12 02:42:56;;;;;;;34.55;18.80;;;;;;;-142.75;100.00;77952.41;5018623;28;20128;-71
2021/11/12 02:45:21;;;;;;;39.67;19.92;;;;;;;-142.75;100.00;77954.38;5001489;28;20542;-72
2021/11/12 02:47:47;;;;;;;40.05;20.40;;;;;;;-142.75;100.00;77966.19;5003612;28;20510;-71
2021/11/12 02:50:13;;;;;;;41.10;21.20;;;;;;;-142.75;100.00;77976.03;5021617;28;20056;-71
2021/11/12 02:52:39;;;;;;;42.83;20.25;;;;;;;-142.75;100.00;77976.03;5023046;28;20036;-71
2021/11/12 02:55:05;;;;;;;41.40;20.85;;;;;;;-142.75;100.00;77970.13;5022433;28;20021;-71
2021/11/12 02:57:34;;;;;;;37.08;19.90;;;;;;;-142.75;100.00;77968.16;5016987;28;20029;-71
2021/11/12 02:59:59;;;;;;;45.83;22.55;;;;;;;-142.75;100.00;77976.03;5012727;28;20026;-71
2021/11/12 03:02:25;;;;;;;41.63;22.15;;;;;;;-142.75;100.00;77972.09;5023481;28;20080;-75
2021/11/12 03:04:50;;;;;;;40.28;20.00;;;;;;;-142.75;100.00;77972.09;5020540;28;20037;-70
2021/11/12 03:07:16;;;;;;;41.42;20.08;;;;;;;-142.75;100.00;77976.03;5020223;28;20033;-70
2021/11/12 03:09:41;;;;;;;42.47;21.45;;;;;;;-142.75;100.00;77978.00;5021500;28;20021;-70
2021/11/12 03:12:08;;;;;;;39.33;20.00;;;;;;;-142.75;100.00;77981.94;5018848;28;20049;-70
2021/11/12 03:14:34;;;;;;;37.05;18.33;;;;;;;-142.75;100.00;77979.97;5003108;28;20017;-72
2021/11/12 03:17:00;;;;;;;31.48;18.25;;;;;;;-142.75;100.00;77968.16;5022387;28;20048;-72
2021/11/12 03:19:27;;;;;;;31.85;18.02;;;;;;;-142.75;100.00;77970.13;5002502;28;20065;-74
2021/11/12 03:21:58;;;;;;;36.72;18.27;;;;;;;-142.75;100.00;77968.16;5020339;28;20083;-72
2021/11/12 03:27:14;;;;;;;33.65;17.55;;;;;;;-142.75;100.00;77940.59;5022587;28;20124;-70
2021/11/12 03:59:57;;;;;;;33.65;21.52;;;;;;;-142.75;100.00;77960.28;5021419;28;20053;-71
2021/11/12 04:05:15;;;;;;;38.83;21.23;;;;;;;-142.75;100.00;77968.16;5021972;28;20034;-72
2021/11/12 05:35:01;;;;;;;61.43;31.77;;;;;;;-142.75;100.00;78090.25;5028906;28;20040;-67
2021/11/12 05:51:23;;;;;;;57.67;32.03;;;;;;;-142.75;100.00;78102.06;5033930;28;20751;-67
2021/11/12 05:56:33;;;;;;;67.33;33.70;;;;;;;-142.75;100.00;78086.31;5027566;28;20043;-68
2021/11/12 05:58:58;;;;;;;66.53;33.05;;;;;;;-142.75;100.00;78100.09;5026850;28;20104;-68
2021/11/12 06:01:24;;;;;;;58.87;30.00;;;;;;;-142.75;100.00;78117.81;5025776;28;20048;-66
2021/11/12 06:03:49;;;;;;;64.90;32.42;;;;;;;-142.75;100.00;78113.88;5028813;28;20279;-66
2021/11/12 06:06:15;;;;;;;63.13;33.70;;;;;;;-142.75;100.00;78129.63;5027571;28;20490;-67
2021/11/12 06:08:41;;;;;;;61.05;33.22;;;;;;;-142.75;100.00;78141.44;5034489;28;20033;-67
2021/11/12 06:11:06;;;;;;;63.75;33.58;;;;;;;-142.75;100.00;78139.47;5034979;28;20066;-67
2021/11/12 06:13:32;;;;;;;64.93;31.85;;;;;;;-142.75;100.00;78141.44;5042213;28;20525;-66
2021/11/12 06:15:57;;;;;;;64.93;32.67;;;;;;;-142.75;100.00;78137.50;5026773;28;20390;-66
2021/11/12 06:18:23;;;;;;;66.07;34.67;;;;;;;-142.75;100.00;78145.38;5030284;28;20021;-66
2021/11/12 06:20:48;;;;;;;72.23;38.57;;;;;;;-142.75;100.00;78141.44;5044854;28;20025;-66
2021/11/12 06:23:14;;;;;;;75.95;39.00;;;;;;;-142.75;100.00;78161.13;5033664;28;20025;-66
2021/11/12 06:25:39;;;;;;;71.20;37.83;;;;;;;-142.75;100.00;78145.38;5046950;28;20074;-67
2021/11/12 06:28:04;;;;;;;68.15;34.00;;;;;;;-142.75;100.00;78149.31;5039448;28;20053;-67
2021/11/12 06:30:30;;;;;;;67.43;36.47;;;;;;;-142.75;100.00;78153.25;5009857;28;20025;-66
2021/11/12 06:32:55;;;;;;;71.15;38.85;;;;;;;-142.75;100.00;78174.91;5032259;28;20021;-65
2021/11/12 06:35:20;;;;;;;78.78;37.75;;;;;;;-142.75;100.00;78180.81;5047054;28;20029;-64
2021/11/12 06:37:46;;;;;;;73.32;37.80;;;;;;;-142.75;100.00;78200.53;5046581;28;20088;-65
2021/11/12 06:40:18;;;;;;;69.47;36.00;;;;;;;-142.75;100.00;78208.41;5038336;28;20032;-65
2021/11/12 06:42:59;;;;;;;68.17;35.73;;;;;;;-142.75;100.00;78186.75;5027837;28;20045;-66
2021/11/12 06:50:36;;;;;;;74.83;36.00;;;;;;;-142.75;100.00;78188.72;5027853;28;20067;-66
2021/11/12 06:53:02;;;;;;;78.40;39.47;;;;;;;-142.75;100.00;78198.56;5026009;28;20021;-66
2021/11/12 06:55:28;;;;;;;77.30;37.75;;;;;;;-142.75;100.00;78208.41;5036322;28;20021;-66
2021/11/12 06:57:53;;;;;;;76.38;38.58;;;;;;;-142.75;100.00;78200.53;5035005;28;20029;-66
2021/11/12 07:00:20;;;;;;;80.32;39.50;;;;;;;-142.75;100.00;78196.59;5028785;28;20073;-67
2021/11/12 07:02:47;;;;;;;79.60;40.07;;;;;;;-142.75;100.00;78202.50;5037713;28;20030;-67
2021/11/12 07:05:13;;;;;;;76.87;40.60;;;;;;;-142.75;100.00;78210.38;5037586;28;20114;-66
2021/11/12 07:07:39;;;;;;;;;;;;;;;-142.75;100.00;78212.34;5037212;28;20025;-66
2021/11/12 07:10:05;;;;;;;78.03;39.70;;;;;;;-142.75;100.00;78206.44;5034382;28;20011;-66
2021/11/12 07:12:31;;;;;;;77.20;40.97;;;;;;;-142.75;100.00;78202.50;5028349;28;20021;-66
2021/11/12 07:14:56;;;;;;;77.45;39.88;;;;;;;-142.75;100.00;78206.44;5025120;28;20104;-66
2021/11/12 07:17:21;;;;;;;88.57;43.25;;;;;;;-142.75;100.00;78210.38;5025013;28;20064;-66
2021/11/12 07:19:47;;;;;;;87.40;42.28;;;;;;;-142.75;100.00;78210.38;5024621;28;20483;-66
2021/11/12 07:22:12;;;;;;;86.40;43.47;;;;;;;-142.75;100.00;78202.50;5025014;28;20483;-67
2021/11/12 07:24:38;;;;;;;85.97;42.03;;;;;;;-142.75;100.00;78218.25;5025521;28;20032;-67
2021/11/12 07:27:05;;;;;;;94.25;42.42;;;;;;;-142.75;100.00;78208.41;5023207;28;20368;-66
2021/11/12 07:29:31;;;;;;;91.50;42.83;;;;;;;-142.75;100.00;78206.44;5023680;28;20117;-67
2021/11/12 07:31:58;;;;;;;84.75;41.85;;;;;;;-142.75;100.00;78194.63;5004978;28;20025;-67
2021/11/12 07:34:28;;;;;;;89.83;44.97;;;;;;;-142.75;100.00;78176.88;5028378;28;20056;-67
2021/11/12 07:37:01;;;;;;;86.13;41.13;;;;;;;-142.75;100.00;78169.00;5010114;28;20033;-67
2021/11/12 07:47:27;;;;;;;92.67;45.30;;;;;;;-142.75;100.00;78151.28;5047273;28;20032;-67
2021/11/12 07:49:55;;;;;;;92.93;45.38;;;;;;;-142.75;100.00;78137.50;5034698;28;20029;-67
2021/11/12 07:52:25;;;;;;;90.47;44.40;;;;;;;-142.75;100.00;78135.53;5027341;28;20380;-68
2021/11/12 07:54:51;;;;;;;91.47;44.90;;;;;;;-142.75;100.00;78141.44;5027533;28;20021;-66
2021/11/12 07:57:17;;;;;;;91.88;45.60;;;;;;;-142.75;100.00;78141.44;5040038;28;20024;-67
2021/11/12 07:59:43;;;;;;;;;;;;;;;-142.75;100.00;78145.38;5038259;28;20040;-67
2021/11/12 08:02:11;;;;;;;91.80;44.57;;;;;;;-142.75;100.00;78145.38;5027043;28;19917;-67
2021/11/12 08:04:36;;;;;;;89.60;44.87;;;;;;;-142.75;100.00;78163.09;5028261;28;20084;-66
2021/11/12 08:07:02;;;;;;;99.25;46.30;;;;;;;-142.75;100.00;78163.09;5027574;28;20072;-66
2021/11/12 08:09:40;;;;;;;89.28;42.45;;;;;;;-142.75;100.00;78172.94;5027242;28;22081;-67
2021/11/12 08:12:11;;;;;;;84.93;42.17;;;;;;;-142.75;100.00;78182.81;5027048;28;20045;-67
2021/11/12 08:17:19;;;;;;;97.18;47.08;;;;;;;-142.75;100.00;78190.69;5045661;28;20029;-66
2021/11/12 08:19:57;;;;;;;104.40;47.03;;;;;;;-142.75;100.00;78186.75;5046380;28;20037;-66
2021/11/12 08:22:37;;;;;;;103.17;47.40;;;;;;;-142.75;100.00;78216.28;5047147;28;20473;-66
2021/11/12 08:25:16;;;;;;;101.93;45.67;;;;;;;-142.75;100.00;78224.16;5042908;28;20514;-66
2021/11/12 08:28:21;;;;;;;99.37;47.17;;;;;;;-142.75;100.00;78216.28;5008731;28;20445;-66
2021/11/12 08:30:52;;;;;;;108.90;48.20;;;;;;;-142.75;100.00;78220.22;5022550;28;20099;-67
2021/11/12 08:36:01;;;;;;;110.57;50.43;;;;;;;-142.75;100.00;78218.25;5046737;28;20643;-67
2021/11/12 08:38:58;;;;;;;108.97;48.90;;;;;;;-142.75;100.00;78230.06;5046015;28;20310;-66
2021/11/12 08:41:24;;;;;;;107.93;49.13;;;;;;;-142.75;100.00;78208.41;5031464;28;20569;-66
2021/11/12 08:43:55;;;;;;;124.90;50.57;;;;;;;-142.75;100.00;78208.41;5027214;28;20022;-67
2021/11/12 08:47:07;;;;;;;114.07;49.40;;;;;;;-142.75;100.00;78180.81;5046677;28;20402;-67
2021/11/12 08:49:15;;;;;;;110.10;49.87;;;;;;;-142.75;100.00;78200.53;5040999;28;20047;-66
2021/11/12 08:51:42;;;;;;;111.93;50.33;;;;;;;-142.75;100.00;78170.97;5045980;28;20127;-67
2021/11/12 08:54:08;;;;;;;;;;;;;;;-142.75;100.00;78157.19;5029397;28;20053;-66
2021/11/12 08:56:35;;;;;;;105.63;49.40;;;;;;;-142.75;100.00;78169.00;5039276;28;19951;-66
2021/11/12 08:59:00;;;;;;;100.13;46.10;;;;;;;-142.75;100.00;78174.91;5026603;28;20095;-67
2021/11/12 09:01:26;;;;;;;109.25;46.30;;;;;;;-142.75;100.00;78188.72;5025962;28;20021;-67
2021/11/12 09:03:54;;;;;;;113.07;48.92;;;;;;;-142.75;100.00;78188.72;5035309;28;20048;-67
2021/11/12 09:06:20;;;;;;;103.10;44.13;;;;;;;-142.75;100.00;78176.88;5046068;28;20025;-67
2021/11/12 09:08:45;;;;;;;101.75;46.15;;;;;;;-142.75;100.00;78190.69;5027688;28;20086;-67
2021/11/12 09:11:11;;;;;;;89.85;42.33;;;;;;;-142.75;100.00;78184.78;5044874;28;20723;-67
2021/11/12 09:13:49;;;;;;;96.45;41.30;;;;;;;-142.75;100.00;78172.94;5045237;28;20063;-67
2021/11/12 09:16:16;;;;;;;91.97;41.37;;;;;;;-142.75;100.00;78163.09;5027984;28;20399;-67
2021/11/12 09:18:48;;;;;;;99.43;43.87;;;;;;;-142.75;100.00;78170.97;5040413;28;20391;-67
2021/11/12 09:21:15;;;;;;;94.10;41.93;;;;;;;-142.75;100.00;78180.81;5025204;28;20017;-67
2021/11/12 09:23:41;;;;;;;89.93;42.43;;;;;;;-142.75;100.00;78178.84;5025657;28;20021;-67
2021/11/12 09:26:06;;;;;;;100.22;42.35;;;;;;;-142.75;100.00;78161.13;5025837;28;20036;-68
2021/11/12 09:28:34;;;;;;;87.88;41.50;;;;;;;-142.75;100.00;78178.84;5025404;28;20108;-68
2021/11/12 09:31:01;;;;;;;89.77;42.10;;;;;;;-142.75;100.00;78161.13;5024658;28;20029;-67
2021/11/12 09:33:26;;;;;;;86.57;39.73;;;;;;;-142.75;100.00;78157.19;5008008;28;20107;-68
2021/11/12 09:35:51;;;;;;;88.70;41.28;;;;;;;-142.75;100.00;78145.38;5027820;28;20060;-68
2021/11/12 09:38:17;;;;;;;93.05;40.38;;;;;;;-142.75;100.00;78137.50;5044631;28;20144;-67
2021/11/12 09:40:42;;;;;;;86.93;39.35;;;;;;;-142.75;100.00;78125.69;5036858;28;20039;-67
2021/11/12 09:43:08;;;;;;;82.75;38.53;;;;;;;-142.75;100.00;78125.69;5031323;28;20021;-67
2021/11/12 09:45:33;;;;;;;86.22;41.05;;;;;;;-142.75;100.00;78107.97;5042775;28;20653;-68
2021/11/12 09:47:59;;;;;;;86.07;40.88;;;;;;;-142.75;100.00;78092.22;5045164;28;20031;-67
2021/11/12 09:50:28;;;;;;;97.15;42.47;;;;;;;-142.75;100.00;78078.44;5033234;28;20104;-68
2021/11/12 09:52:54;;;;;;;83.63;41.27;;;;;;;-142.75;100.00;78064.66;5025177;28;20021;-68
2021/11/12 09:55:20;;;;;;;79.43;35.70;;;;;;;-142.75;100.00;78042.97;5025294;28;20505;-67
2021/11/12 09:57:46;;;;;;;;;;;;;;;-142.75;100.00;77999.66;5025660;28;20017;-66
2021/11/12 10:00:17;;;;;;;80.37;37.93;;;;;;;-142.75;100.00;77966.19;5024166;28;19913;-67
2021/11/12 10:02:45;;;;;;;80.13;39.07;;;;;;;-142.75;100.00;77905.13;5007313;28;20024;-67
2021/11/12 10:05:16;;;;;;;79.93;39.13;;;;;;;-142.75;100.00;77899.22;5026089;28;20526;-67
2021/11/12 10:07:41;;;;;;;76.00;37.33;;;;;;;-142.75;100.00;77907.09;5025028;28;20029;-67
2021/11/12 10:10:15;;;;;;;71.20;35.70;;;;;;;-142.75;100.00;77879.53;5023943;28;20025;-67
2021/11/12 10:12:50;;;;;;;74.93;37.97;;;;;;;-142.75;100.00;77802.75;5025095;28;20418;-67
2021/11/12 10:15:20;;;;;;;74.23;37.23;;;;;;;-142.75;100.00;77777.16;5040409;28;20028;-67
2021/11/12 10:17:48;;;;;;;72.73;37.63;;;;;;;-142.75;100.00;77755.50;5044104;28;20025;-67
2021/11/12 10:20:17;;;;;;;80.90;39.77;;;;;;;-142.75;100.00;77704.28;5036273;28;20400;-67
2021/11/12 10:22:45;;;;;;;72.83;36.77;;;;;;;-142.75;100.00;77706.25;5025911;28;20029;-67
2021/11/12 10:25:12;;;;;;;72.73;37.23;;;;;;;-142.75;100.00;77631.44;5025686;28;20052;-67
2021/11/12 10:27:41;;;;;;;70.10;37.33;;;;;;;-142.75;100.00;77641.28;5027242;28;20372;-68
2021/11/12 10:30:13;;;;;;;76.87;38.93;;;;;;;-142.75;100.00;77558.59;5038313;28;20025;-67
2021/11/12 10:32:40;;;;;;;70.67;36.23;;;;;;;-142.75;100.00;77574.34;5047427;28;20040;-67
2021/11/12 10:35:21;;;;;;;77.67;36.90;;;;;;;-142.75;100.00;77633.41;5048126;28;20170;-68
2021/11/12 10:37:47;;;;;;;76.43;37.37;;;;;;;-142.75;100.00;77609.78;5030325;28;20035;-67
2021/11/12 10:40:18;;;;;;;69.18;35.75;;;;;;;-142.75;100.00;77540.88;5045583;28;20021;-68
2021/11/12 10:42:47;;;;;;;68.03;32.67;;;;;;;-142.75;100.00;77533.00;5048089;28;20021;-68
2021/11/12 10:45:19;;;;;;;62.20;34.40;;;;;;;-142.75;99.45;77521.19;5048114;28;20036;-68
2021/11/12 10:47:49;;;;;;;61.80;32.53;;;;;;;-142.75;98.33;77475.91;5048147;28;20037;-68
2021/11/12 10:50:16;;;;;;;59.13;33.30;;;;;;;-142.75;97.78;77448.34;5047913;28;20032;-67
2021/11/12 10:52:41;;;;;;;56.20;30.98;;;;;;;-142.75;96.19;77444.38;5048007;28;20044;-68
2021/11/12 10:55:12;;;;;;;56.33;30.88;;;;;;;-142.75;96.30;77442.41;5030115;28;20033;-67
2021/11/12 10:58:01;;;;;;;52.50;28.93;;;;;;;-142.75;94.80;77401.06;5047923;28;20025;-68
2021/11/12 11:00:44;;;;;;;51.47;28.95;;;;;;;-142.75;93.81;77359.72;5047183;28;20025;-68
2021/11/12 11:03:12;;;;;;;51.40;28.83;;;;;;;-142.75;93.42;77410.91;5048038;28;20183;-67
2021/11/12 11:05:42;;;;;;;45.70;26.83;;;;;;;-142.75;94.94;77475.91;5047732;28;20033;-67
2021/11/12 11:08:13;;;;;;;51.67;27.33;;;;;;;-142.75;96.22;77495.59;5030433;28;20394;-67
2021/11/12 11:10:49;;;;;;;50.28;25.77;;;;;;;-142.75;97.50;77489.69;5051541;28;20522;-68
2021/11/12 11:13:20;;;;;;;43.08;25.08;;;;;;;-142.75;97.90;77487.72;5040511;28;20032;-67
2021/11/12 11:15:50;;;;;;;47.45;25.92;;;;;;;-142.75;98.67;77497.56;5032449;28;20431;-66
2021/11/12 11:18:24;;;;;;;48.05;26.00;;;;;;;-142.75;100.00;77527.09;5034882;28;20033;-68
2021/11/12 11:20:55;;;;;;;44.38;23.65;;;;;;;-142.75;100.00;77519.22;5021879;28;20025;-68
2021/11/12 11:23:21;;;;;;;47.67;25.65;;;;;;;-142.75;100.00;77499.53;5051335;28;20490;-68
2021/11/12 11:26:00;;;;;;;45.95;24.95;;;;;;;-142.75;100.00;77534.97;5033953;28;20025;-67
2021/11/12 11:28:26;;;;;;;48.40;25.42;;;;;;;-142.75;100.00;77507.41;5051366;28;20393;-68
2021/11/12 11:30:52;;;;;;;;;;;;;;;-142.75;100.00;77540.88;5050929;28;20486;-68
2021/11/12 11:33:19;;;;;;;45.13;23.73;;;;;;;-142.75;100.00;77550.72;5051412;28;19920;-69
2021/11/12 11:35:46;;;;;;;42.47;24.23;;;;;;;-142.75;100.00;77552.69;5031738;28;20025;-68
2021/11/12 11:38:15;;;;;;;40.47;24.37;;;;;;;-142.75;100.00;77562.53;5031052;28;20025;-68
2021/11/12 11:40:43;;;;;;;50.17;27.20;;;;;;;-142.75;100.00;77542.84;5029594;28;20029;-69
2021/11/12 11:43:09;;;;;;;44.17;24.47;;;;;;;-142.75;100.00;77572.38;5013701;28;20160;-67
2021/11/12 11:45:36;;;;;;;44.63;22.77;;;;;;;-142.75;100.00;77592.06;5031404;28;20424;-67
2021/11/12 11:48:02;;;;;;;46.07;22.93;;;;;;;-142.75;100.00;77594.03;5031270;28;20029;-67
2021/11/12 11:50:32;;;;;;;41.20;23.23;;;;;;;-142.75;100.00;77611.75;5030554;28;20024;-67
2021/11/12 11:53:41;;;;;;;44.40;25.63;;;;;;;-142.75;100.00;77623.56;5030843;28;20021;-67
2021/11/12 11:56:32;;;;;;;35.77;21.30;;;;;;;-142.75;100.00;77603.88;5022265;28;20067;-67
2021/11/12 11:59:17;;;;;;;43.87;24.70;;;;;;;-142.75;100.00;77580.25;5021616;28;20522;-67
2021/11/12 12:01:48;;;;;;;48.80;24.37;;;;;;;-142.75;100.00;77588.13;5030239;28;20060;-67
2021/11/12 12:04:14;;;;;;;41.40;23.93;;;;;;;-142.75;100.00;77578.28;5030996;28;20029;-72
2021/11/12 12:07:00;;;;;;;40.53;23.33;;;;;;;-142.75;100.00;77552.69;5031080;28;20037;-66
2021/11/12 12:10:00;;;;;;;45.15;26.55;;;;;;;-142.75;100.00;77556.63;5030693;28;20035;-67
2021/11/12 12:12:34;;;;;;;45.23;23.50;;;;;;;-142.75;100.00;77544.81;5030441;28;20028;-66
2021/11/12 12:15:05;;;;;;;42.93;23.20;;;;;;;-142.75;100.00;77554.66;5038372;22;20463;-69
2021/11/12 12:17:34;;;;;;;42.67;23.53;;;;;;;-142.75;100.00;77576.31;5018218;28;20033;-69
2021/11/12 12:20:19;;;;;;;38.95;23.42;;;;;;;-142.75;100.00;77536.94;5027062;28;20474;-70
2021/11/12 12:31:33;;;;;;;36.80;22.23;;;;;;;-142.75;100.00;77533.00;5021792;28;20057;-71
2021/11/12 12:37:25;;;;;;;48.10;24.80;;;;;;;-142.75;100.00;77517.25;5024086;28;20033;-70
2021/11/12 13:25:49;;;;;;;39.47;21.58;;;;;;;-142.75;100.00;77371.53;5021894;28;20036;-71
2021/11/12 13:28:16;;;;;;;36.97;21.13;;;;;;;-142.75;100.00;77363.66;5013726;28;20105;-70
2021/11/12 13:31:23;;;;;;;40.63;21.02;;;;;;;-142.75;100.00;77349.88;5022707;28;20386;-71
2021/11/12 13:33:56;;;;;;;35.75;20.23;;;;;;;-142.75;100.00;77340.03;5002369;28;20045;-71
2021/11/12 13:36:37;;;;;;;39.88;20.85;;;;;;;-142.75;100.00;77322.31;5025617;28;20056;-70
2021/11/12 13:39:05;;;;;;;32.38;19.73;;;;;;;-142.75;100.00;77340.03;5022543;28;20037;-71
2021/11/12 13:41:40;;;;;;;38.00;21.27;;;;;;;-142.75;100.00;77324.28;4997815;28;20063;-71
2021/11/12 13:44:14;;;;;;;34.88;19.67;;;;;;;-142.75;100.00;77310.50;5020104;28;20033;-70
2021/11/12 13:46:57;;;;;;;40.30;20.60;;;;;;;-142.75;100.00;77312.47;5021000;28;20833;-70
2021/11/12 13:49:43;;;;;;;36.72;19.20;;;;;;;-142.75;100.00;77288.84;5020731;28;20053;-70
2021/11/12 13:52:13;;;;;;;36.78;19.52;;;;;;;-142.75;100.00;77288.84;5022592;28;20032;-70
2021/11/12 13:54:49;;;;;;;37.05;20.00;;;;;;;-142.75;100.00;77284.91;5024340;28;20033;-70
2021/11/12 13:57:21;;;;;;;36.78;20.60;;;;;;;-142.75;99.83;77277.03;5018941;28;20483;-70
2021/11/12 14:00:26;;;;;;;30.57;18.63;;;;;;;-142.75;98.99;77265.22;5013945;28;20080;-71
2021/11/12 14:03:10;;;;;;;33.58;18.40;;;;;;;-142.75;98.37;77267.19;5023921;28;20038;-72
2021/11/12 14:05:56;;;;;;;29.93;18.03;;;;;;;-142.75;98.03;77271.13;5020933;28;20033;-69
2021/11/12 14:08:21;;;;;;;33.20;19.23;;;;;;;-142.75;99.39;77259.31;5014254;28;20041;-70
2021/11/12 14:10:51;;;;;;;32.25;19.17;;;;;;;-142.75;98.64;77251.44;5018893;28;20031;-70
2021/11/12 14:13:19;;;;;;;36.53;18.55;;;;;;;-142.75;98.88;77255.38;5017102;28;20695;-71
2021/11/12 14:16:50;;;;;;;33.03;18.13;;;;;;;-142.75;98.44;77247.50;5016761;28;20021;-70
2021/11/12 14:21:36;;;;;;;32.77;18.97;;;;;;;-142.75;99.14;77233.72;5018292;28;20042;-69
2021/11/12 14:26:45;;;;;;;33.95;18.92;;;;;;;-142.75;99.37;77217.97;5014135;28;20034;-71
2021/11/12 14:29:17;;;;;;;36.22;18.80;;;;;;;-142.75;99.51;77227.81;5017288;28;20079;-70
2021/11/12 14:44:47;;;;;;;38.22;19.17;;;;;;;-142.75;100.00;77212.06;5016718;28;20462;-72
2021/11/12 14:47:24;;;;;;;34.30;18.05;;;;;;;-142.75;100.00;77219.94;5003988;28;20559;-72
2021/11/12 14:50:03;;;;;;;32.92;18.85;;;;;;;-142.75;100.00;77208.13;5001740;28;20026;-70
2021/11/12 14:52:29;;;;;;;31.50;18.27;;;;;;;-142.75;100.00;77212.06;5022667;28;20025;-70
2021/11/12 14:55:05;;;;;;;29.20;17.38;;;;;;;-142.75;100.00;77216.00;5023930;28;20376;-71
2021/11/12 14:57:34;;;;;;;32.53;16.58;;;;;;;-142.75;100.00;77214.03;5020629;28;20096;-71
2021/11/12 15:00:08;;;;;;;30.98;17.65;;;;;;;-142.75;100.00;77212.06;5018364;28;20029;-72
2021/11/12 15:02:38;;;;;;;30.55;17.20;;;;;;;-142.75;100.00;77196.31;5014090;28;20021;-70
2021/11/12 15:05:05;;;;;;;28.70;17.00;;;;;;;-142.75;100.00;77192.38;5028704;28;20030;-70
2021/11/12 15:10:35;;;;;;;35.92;17.73;;;;;;;-142.75;100.00;77188.44;5001038;28;20100;-71
2021/11/12 15:13:00;;;;;;;28.05;16.67;;;;;;;-142.75;100.00;77180.56;4996004;28;20037;-71
2021/11/12 15:15:26;;;;;;;32.97;16.52;;;;;;;-142.75;100.00;77176.63;4988774;28;20422;-71
2021/11/12 15:17:53;;;;;;;31.98;17.05;;;;;;;-142.75;100.00;77172.69;5018741;28;20029;-71
2021/11/12 15:20:19;;;;;;;29.38;15.70;;;;;;;-142.75;100.00;77139.22;5010260;28;20506;-69
2021/11/12 15:31:08;;;;;;;24.85;13.30;;;;;;;-142.75;98.64;77141.19;5009021;28;20092;-69
2021/11/12 15:33:33;;;;;;;24.83;13.50;;;;;;;-142.75;98.03;77143.16;5010872;28;20040;-71
2021/11/12 15:36:03;;;;;;;26.00;13.82;;;;;;;-142.75;96.76;77149.06;5009106;28;20014;-70
2021/11/12 15:38:35;;;;;;;27.95;13.25;;;;;;;-142.75;97.71;77137.25;5009115;28;20117;-72
2021/11/12 15:44:36;;;;;;;24.65;12.45;;;;;;;-142.75;96.67;77113.63;4990844;28;20095;-72
2021/11/12 15:46:44;;;;;;;25.95;13.02;;;;;;;-142.75;94.91;77115.59;5016034;28;20041;-71
2021/11/12 15:49:11;;;;;;;25.92;13.45;;;;;;;-142.75;94.68;77123.47;5019552;28;20021;-71
2021/11/12 15:51:46;;;;;;;27.50;12.77;;;;;;;-142.75;94.28;77129.38;5018133;28;20021;-70